Time;durP1;ratioP1;P1;durP2;ratioP2;P2;SDS_P1;SDS_P2;PMS_P1;PMS_P2;Temp;Humidity;BMP_temperature;BMP_pressure;BME280_temperature;BME280_humidity;BME280_pressure;Samples;Min_cycle;Max_cycle;Signal;HPM_P1;HPM_P2
2021/05/30 00:01:03;;;;;;;5.22;1.60;;;;;;;37.90;39.83;161177.28;1691951;84;21423;-81
2021/05/30 00:03:36;;;;;;;2.22;1.65;;;;;;;38.98;38.44;161469.53;1692218;84;21210;-80
2021/05/30 00:06:08;;;;;;;2.37;1.47;;;;;;;39.05;37.96;161489.64;1692049;85;21709;-80
2021/05/30 00:08:41;;;;;;;2.15;1.40;;;;;;;39.22;37.56;161533.94;1692297;84;21222;-80
2021/05/30 00:11:13;;;;;;;1.77;1.30;;;;;;;38.54;38.18;161350.17;1692079;85;21257;-80
2021/05/30 00:13:46;;;;;;;2.27;1.40;;;;;;;38.49;38.08;161336.75;1692133;84;21368;-80
2021/05/30 00:16:19;;;;;;;1.55;1.40;;;;;;;38.33;38.17;161295.22;1691948;85;21202;-81
2021/05/30 00:18:51;;;;;;;1.57;1.47;;;;;;;38.34;38.17;161296.59;1691947;85;21269;-80
2021/05/30 00:21:24;;;;;;;4.60;1.40;;;;;;;38.25;38.13;161273.81;1692171;84;21387;-80
2021/05/30 00:24:02;;;;;;;4.15;1.72;;;;;;;38.33;37.91;161295.22;1692008;83;21712;-80
2021/05/30 00:26:30;;;;;;;4.05;1.40;;;;;;;38.55;37.54;161354.19;1692108;84;21364;-80
2021/05/30 00:29:02;;;;;;;3.33;1.40;;;;;;;38.42;37.56;161319.38;1692032;83;21174;-80
2021/05/30 00:31:35;;;;;;;1.60;1.50;;;;;;;38.41;37.59;161316.70;1691988;84;21242;-81
2021/05/30 00:34:07;;;;;;;6.40;1.50;;;;;;;38.00;38.02;161205.44;1691892;84;22328;-80
2021/05/30 00:36:39;;;;;;;3.05;1.70;;;;;;;37.99;38.12;161204.08;1692107;84;21412;-81
2021/05/30 00:39:11;;;;;;;3.02;1.45;;;;;;;37.97;38.10;161196.02;1692440;84;21281;-81
2021/05/30 00:41:44;;;;;;;2.98;1.45;;;;;;;38.03;37.96;161214.81;1692188;85;21427;-81
2021/05/30 00:44:29;;;;;;;2.25;1.30;;;;;;;37.97;38.09;161196.02;1692511;84;21242;-81
2021/05/30 00:47:02;;;;;;;1.70;1.22;;;;;;;37.91;38.17;161179.97;1692007;84;21266;-81
2021/05/30 00:49:34;;;;;;;2.05;1.42;;;;;;;37.96;38.12;161194.70;1691870;84;21376;-80
2021/05/30 00:52:08;;;;;;;1.47;1.37;;;;;;;37.40;38.57;161044.66;1692300;84;21233;-81
2021/05/30 00:54:42;;;;;;;5.53;1.72;;;;;;;37.60;38.59;161096.89;1692696;84;21250;-82
2021/05/30 00:57:14;;;;;;;6.15;1.67;;;;;;;37.69;38.39;161122.31;1692147;84;21835;-81
2021/05/30 00:59:46;;;;;;;3.65;1.40;;;;;;;37.67;38.44;161115.63;1691991;85;21427;-81
2021/05/30 01:02:18;;;;;;;1.60;1.50;;;;;;;37.61;38.50;161099.58;1691933;85;21332;-81
2021/05/30 01:04:51;;;;;;;3.10;1.47;;;;;;;37.84;38.23;161161.23;1664142;86;21352;-82
2021/05/30 01:07:24;;;;;;;1.70;1.40;;;;;;;37.62;38.27;161103.56;1668983;85;21388;-81
2021/05/30 01:09:57;;;;;;;3.25;1.77;;;;;;;37.58;38.33;161092.84;1691965;85;21816;-81
2021/05/30 01:12:29;;;;;;;2.00;1.27;;;;;;;37.78;38.05;161145.09;1692081;85;21753;-81
2021/05/30 01:15:01;;;;;;;1.77;1.35;;;;;;;37.61;38.21;161100.89;1692127;85;21198;-81
2021/05/30 01:17:34;;;;;;;6.90;1.37;;;;;;;37.35;38.75;161029.94;1692131;84;21194;-81
2021/05/30 01:20:11;;;;;;;1.87;1.42;;;;;;;36.82;39.14;160886.56;1691540;84;21392;-81
2021/05/30 01:22:44;;;;;;;3.77;1.40;;;;;;;36.66;39.41;160843.72;1691949;85;21237;-80
2021/05/30 01:25:20;;;;;;;2.85;1.57;;;;;;;36.57;39.46;160821.00;1685648;83;21198;-80
2021/05/30 01:27:53;;;;;;;2.72;1.42;;;;;;;36.27;39.78;160740.63;1684929;85;21297;-80
2021/05/30 01:30:25;;;;;;;1.90;1.37;;;;;;;36.38;39.73;160770.06;1657417;86;21341;-80
2021/05/30 01:32:58;;;;;;;1.70;1.60;;;;;;;36.46;39.50;160791.50;1657383;86;21206;-81
2021/05/30 01:35:30;;;;;;;2.27;1.40;;;;;;;36.26;39.75;160737.94;1655963;86;21340;-80
2021/05/30 01:38:02;;;;;;;1.30;1.20;;;;;;;36.75;39.06;160867.84;1657538;86;21349;-80
2021/05/30 01:40:34;;;;;;;1.65;1.52;;;;;;;36.73;39.08;160862.48;1657647;86;21296;-83
2021/05/30 01:43:07;;;;;;;1.60;1.47;;;;;;;36.69;39.11;160853.08;1656182;86;21352;-81
2021/05/30 01:45:41;;;;;;;3.58;1.45;;;;;;;36.71;39.07;160857.13;1683895;85;21199;-81
2021/05/30 01:48:13;;;;;;;1.55;1.45;;;;;;;36.56;39.30;160818.31;1684990;85;21824;-82
2021/05/30 01:50:48;;;;;;;4.12;1.27;;;;;;;36.42;39.45;160779.41;1685022;84;21253;-85
2021/05/30 01:53:29;;;;;;;2.27;1.57;;;;;;;36.31;39.62;160751.34;1685208;85;21249;-81
2021/05/30 01:58:30;;;;;;;1.95;1.50;;;;;;;36.25;39.66;160735.27;1685050;85;21237;-81
2021/05/30 02:01:03;;;;;;;1.30;1.20;;;;;;;36.27;39.66;160739.31;1685086;85;21713;-81
2021/05/30 02:03:35;;;;;;;1.90;1.50;;;;;;;36.07;39.97;160685.75;1690741;84;21214;-81
2021/05/30 02:06:07;;;;;;;2.40;1.50;;;;;;;36.08;40.01;160687.13;1688722;84;21737;-81
2021/05/30 02:08:40;;;;;;;2.90;1.65;;;;;;;37.03;39.00;160944.20;1699731;84;21198;-81
2021/05/30 02:11:13;;;;;;;3.70;1.75;;;;;;;37.51;38.28;161074.11;1670713;83;21782;-81
2021/05/30 02:13:45;;;;;;;2.00;1.60;;;;;;;37.57;38.13;161088.84;1688732;84;21388;-81
2021/05/30 02:16:18;;;;;;;1.95;1.32;;;;;;;37.25;38.49;161004.41;1674082;84;21226;-81
2021/05/30 02:18:50;;;;;;;3.17;1.70;;;;;;;37.38;38.44;161039.28;1671454;84;21211;-81
2021/05/30 02:21:24;;;;;;;4.95;1.95;;;;;;;37.59;38.20;161094.20;1696394;84;21391;-81
2021/05/30 02:23:56;;;;;;;4.20;2.05;;;;;;;37.42;38.36;161048.66;1688468;83;21200;-81
2021/05/30 02:26:28;;;;;;;2.30;1.70;;;;;;;37.56;38.26;161087.48;1687766;83;21237;-80
2021/05/30 02:29:01;;;;;;;4.10;2.10;;;;;;;37.85;37.85;161163.92;1694559;83;21246;-82
2021/05/30 02:31:33;;;;;;;4.05;2.00;;;;;;;37.72;37.97;161129.03;1685015;84;21368;-81
2021/05/30 02:34:06;;;;;;;3.95;1.90;;;;;;;37.77;37.80;161142.41;1700917;83;21320;-79
2021/05/30 02:36:38;;;;;;;2.45;1.87;;;;;;;37.81;37.68;161154.50;1691454;84;21747;-81
2021/05/30 02:39:10;;;;;;;2.95;1.75;;;;;;;37.94;37.44;161188.02;1682808;84;21351;-82
2021/05/30 02:41:44;;;;;;;2.30;1.85;;;;;;;37.70;37.79;161123.67;1702120;84;21294;-82
2021/05/30 02:44:16;;;;;;;2.95;1.92;;;;;;;37.84;37.60;161161.23;1687235;84;21882;-79
2021/05/30 02:46:48;;;;;;;7.25;1.70;;;;;;;37.94;37.49;161188.02;1706859;83;21353;-80
2021/05/30 02:49:22;;;;;;;2.62;1.90;;;;;;;37.93;37.47;161186.66;1690461;84;21364;-80
2021/05/30 02:51:54;;;;;;;2.80;1.82;;;;;;;38.17;37.22;161250.97;1692227;84;21234;-81
2021/05/30 02:54:27;;;;;;;2.67;2.10;;;;;;;37.96;37.33;161193.39;1697892;84;21690;-81
2021/05/30 02:56:59;;;;;;;2.85;1.90;;;;;;;37.97;37.36;161197.39;1692222;84;21609;-81
2021/05/30 02:59:32;;;;;;;5.12;2.10;;;;;;;38.14;37.20;161244.28;1687003;84;22626;-80
2021/05/30 03:02:05;;;;;;;4.62;2.77;;;;;;;38.14;37.26;161242.91;1701964;84;21199;-80
2021/05/30 03:04:37;;;;;;;2.10;1.80;;;;;;;38.33;37.07;161293.91;1694573;84;21366;-81
2021/05/30 03:07:09;;;;;;;2.50;2.00;;;;;;;38.29;37.05;161284.53;1703382;84;22545;-80
2021/05/30 03:09:42;;;;;;;2.10;1.90;;;;;;;38.34;36.97;161296.59;1683531;84;21200;-80
2021/05/30 03:12:16;;;;;;;3.08;1.90;;;;;;;38.34;36.97;161297.91;1694395;84;21356;-80
2021/05/30 03:14:48;;;;;;;2.42;1.80;;;;;;;36.99;38.57;160932.09;1685469;84;21183;-80
2021/05/30 03:17:22;;;;;;;1.77;1.62;;;;;;;36.80;38.83;160882.56;1707075;84;21154;-81
2021/05/30 03:19:54;;;;;;;1.65;1.50;;;;;;;36.73;38.82;160862.48;1683178;84;21752;-81
2021/05/30 03:22:26;;;;;;;2.77;1.47;;;;;;;36.53;38.94;160808.91;1693404;84;21899;-81
2021/05/30 03:24:59;;;;;;;1.90;1.57;;;;;;;36.38;39.15;160770.06;1692095;84;21364;-80
2021/05/30 03:27:31;;;;;;;2.67;1.60;;;;;;;36.49;39.09;160799.55;1658868;84;21246;-81
2021/05/30 03:30:06;;;;;;;2.60;1.60;;;;;;;36.49;38.90;160799.55;1646556;85;21388;-80
2021/05/30 03:32:38;;;;;;;1.50;1.30;;;;;;;36.45;38.94;160788.88;1655320;85;21222;-80
2021/05/30 03:35:10;;;;;;;3.15;1.30;;;;;;;36.32;39.11;160754.03;1655946;85;21210;-80
2021/05/30 03:37:43;;;;;;;2.05;1.50;;;;;;;36.35;39.17;160762.02;1649922;85;21250;-84
2021/05/30 03:42:52;;;;;;;2.62;1.40;;;;;;;37.14;38.62;160973.66;1650626;85;21768;-80
2021/05/30 03:45:25;;;;;;;1.32;1.22;;;;;;;37.24;37.86;161000.42;1650454;85;21726;-80
2021/05/30 03:47:58;;;;;;;1.47;1.35;;;;;;;36.68;38.71;160849.08;1655311;86;21242;-81
2021/05/30 03:50:30;;;;;;;13.55;4.50;;;;;;;38.12;37.15;161238.91;1655800;85;21195;-79
2021/05/30 03:53:03;;;;;;;1.92;1.70;;;;;;;38.18;36.85;161255.02;1656493;86;21202;-80
2021/05/30 03:55:35;;;;;;;1.40;1.30;;;;;;;38.14;36.84;161242.91;1655955;85;21233;-80
2021/05/30 03:58:07;;;;;;;3.22;1.85;;;;;;;38.26;36.64;161276.48;1655334;86;21729;-79
2021/05/30 04:00:40;;;;;;;4.60;1.67;;;;;;;38.09;36.81;161229.55;1656799;85;21706;-80
2021/05/30 04:03:13;;;;;;;1.40;1.30;;;;;;;38.27;36.65;161279.17;1658108;85;21257;-80
2021/05/30 04:05:45;;;;;;;2.58;1.87;;;;;;;38.14;36.68;161244.28;1654643;85;21289;-79
2021/05/30 04:08:18;;;;;;;1.57;1.30;;;;;;;38.13;36.68;161240.28;1652001;85;21250;-81
2021/05/30 04:10:51;;;;;;;4.00;1.22;;;;;;;38.15;36.59;161245.59;1661340;85;21203;-79
2021/05/30 04:13:23;;;;;;;2.20;1.35;;;;;;;38.17;36.57;161252.33;1656639;85;21238;-83
2021/05/30 04:15:55;;;;;;;1.70;1.40;;;;;;;38.43;36.27;161320.70;1650352;85;21190;-80
2021/05/30 04:18:28;;;;;;;1.92;1.40;;;;;;;38.30;36.30;161285.86;1650287;85;21780;-83
2021/05/30 04:21:01;;;;;;;1.30;1.17;;;;;;;38.38;36.16;161308.64;1655880;85;21257;-80
2021/05/30 04:23:33;;;;;;;1.45;1.35;;;;;;;38.17;36.43;161252.33;1655668;85;21207;-80
2021/05/30 04:26:05;;;;;;;1.60;1.50;;;;;;;38.32;36.36;161291.22;1659069;85;21371;-79
2021/05/30 04:28:37;;;;;;;2.05;1.47;;;;;;;38.31;36.37;161289.86;1680712;84;21437;-79
2021/05/30 04:31:10;;;;;;;5.62;1.55;;;;;;;38.43;36.25;161322.02;1686760;84;21269;-79
2021/05/30 04:33:43;;;;;;;2.02;1.40;;;;;;;38.56;36.18;161355.55;1690868;84;21850;-81
2021/05/30 04:36:15;;;;;;;2.20;1.50;;;;;;;38.40;36.42;161312.64;1700649;84;21191;-80
2021/05/30 04:38:47;;;;;;;1.95;1.72;;;;;;;38.57;36.26;161358.23;1683974;84;21322;-80
2021/05/30 04:41:19;;;;;;;2.80;2.00;;;;;;;38.64;36.08;161376.97;1682913;84;21332;-80
2021/05/30 04:43:51;;;;;;;1.90;1.67;;;;;;;38.57;35.99;161359.55;1693972;84;21368;-80
2021/05/30 04:46:24;;;;;;;2.17;1.95;;;;;;;38.66;35.84;161383.70;1695111;84;21364;-80
2021/05/30 04:48:57;;;;;;;2.35;2.05;;;;;;;38.61;35.78;161370.28;1689616;83;21683;-81
2021/05/30 04:51:30;;;;;;;1.80;1.60;;;;;;;38.45;35.94;161326.06;1677231;84;21364;-81
2021/05/30 04:54:02;;;;;;;3.02;1.60;;;;;;;38.59;35.70;161364.91;1693051;84;21826;-82
2021/05/30 04:56:35;;;;;;;1.82;1.32;;;;;;;38.61;35.68;161370.28;1688440;84;21382;-82
2021/05/30 04:59:07;;;;;;;2.75;1.45;;;;;;;38.49;35.77;161336.75;1702326;84;21316;-83
2021/05/30 05:01:40;;;;;;;4.37;2.12;;;;;;;38.47;35.90;161332.75;1672277;85;21229;-83
2021/05/30 05:04:12;;;;;;;1.50;1.40;;;;;;;38.55;36.06;161352.86;1684102;85;21286;-82
2021/05/30 05:06:44;;;;;;;3.20;1.50;;;;;;;38.62;35.97;161372.97;1679913;85;21331;-82
2021/05/30 05:09:17;;;;;;;4.75;1.52;;;;;;;38.63;36.04;161375.66;1678702;85;21410;-83
2021/05/30 05:11:49;;;;;;;3.58;1.40;;;;;;;38.82;35.84;161425.30;1678648;85;21229;-83
2021/05/30 05:14:22;;;;;;;1.40;1.30;;;;;;;38.82;35.73;161425.30;1678842;83;21882;-81
2021/05/30 05:16:54;;;;;;;1.42;1.32;;;;;;;38.86;35.58;161437.36;1664708;85;21348;-78
2021/05/30 05:19:26;;;;;;;1.70;1.30;;;;;;;38.86;35.61;161437.36;1682184;85;21340;-78
2021/05/30 05:21:59;;;;;;;1.65;1.30;;;;;;;38.94;35.65;161457.47;1680490;85;21908;-78
2021/05/30 05:24:31;;;;;;;3.33;1.70;;;;;;;38.92;35.75;161452.11;1683004;85;21214;-82
2021/05/30 05:27:04;;;;;;;1.57;1.37;;;;;;;38.96;35.79;161464.16;1679018;85;21241;-83
2021/05/30 05:29:37;;;;;;;1.90;1.55;;;;;;;39.06;35.69;161490.97;1684793;85;21876;-82
2021/05/30 05:32:09;;;;;;;1.55;1.42;;;;;;;39.05;35.75;161489.64;1684319;85;21396;-80
2021/05/30 05:34:42;;;;;;;1.35;1.10;;;;;;;39.18;35.37;161524.50;1684944;85;21416;-80
2021/05/30 05:37:14;;;;;;;2.10;1.90;;;;;;;39.11;35.24;161504.44;1684711;85;21218;-81
2021/05/30 05:39:48;;;;;;;4.58;1.40;;;;;;;39.13;35.08;161509.77;1684831;85;21167;-80
2021/05/30 05:42:20;;;;;;;1.30;1.20;;;;;;;39.20;34.82;161529.88;1682193;83;21341;-79
2021/05/30 05:44:53;;;;;;;1.42;1.20;;;;;;;39.24;34.58;161539.25;1683095;85;21848;-80
2021/05/30 05:47:25;;;;;;;2.30;1.22;;;;;;;39.05;34.64;161488.28;1683547;85;22464;-81
2021/05/30 05:49:58;;;;;;;1.30;1.20;;;;;;;39.09;34.64;161499.08;1680993;83;21242;-83
2021/05/30 05:52:31;;;;;;;1.35;1.15;;;;;;;38.88;34.83;161441.36;1677540;84;21175;-84
2021/05/30 05:55:06;;;;;;;4.25;1.62;;;;;;;39.01;34.65;161477.53;1659275;84;21435;-84
2021/05/30 05:57:40;;;;;;;1.40;1.22;;;;;;;39.05;34.46;161488.28;1669151;84;21579;-85
2021/05/30 06:00:15;;;;;;;1.92;1.12;;;;;;;39.14;34.26;161513.81;1663837;85;21238;-85
2021/05/30 06:02:49;;;;;;;1.85;1.20;;;;;;;39.17;33.93;161521.88;1638865;84;21289;-83
2021/05/30 06:05:25;;;;;;;1.50;1.22;;;;;;;39.23;33.87;161537.94;1669180;84;21254;-83
2021/05/30 06:07:58;;;;;;;1.47;1.17;;;;;;;39.14;33.87;161513.81;1655692;84;21756;-83
2021/05/30 06:10:31;;;;;;;3.40;2.00;;;;;;;39.11;33.96;161504.44;1672236;85;21206;-84
2021/05/30 06:13:09;;;;;;;2.27;1.30;;;;;;;39.00;34.08;161476.22;1663431;84;21415;-83
2021/05/30 06:15:43;;;;;;;1.52;1.10;;;;;;;39.00;34.10;161476.22;1666796;84;21790;-83
2021/05/30 06:18:17;;;;;;;1.22;1.12;;;;;;;38.98;34.17;161470.84;1656735;85;21389;-84
2021/05/30 06:20:50;;;;;;;1.65;1.10;;;;;;;38.98;34.31;161469.53;1660804;84;21777;-83
2021/05/30 06:23:22;;;;;;;1.55;1.10;;;;;;;39.00;34.47;161474.91;1665181;84;21365;-84
2021/05/30 06:25:55;;;;;;;2.00;0.93;;;;;;;39.02;34.63;161481.59;1678726;84;21437;-81
2021/05/30 06:28:27;;;;;;;2.15;1.57;;;;;;;39.00;34.63;161474.91;1674084;84;21388;-82
2021/05/30 06:30:59;;;;;;;2.37;1.17;;;;;;;39.21;34.39;161532.56;1665399;83;21309;-85
2021/05/30 06:33:32;;;;;;;1.10;1.00;;;;;;;39.20;34.29;161529.88;1664653;85;21411;-82
2021/05/30 06:36:08;;;;;;;2.42;1.32;;;;;;;38.95;34.57;161460.16;1671236;84;21202;-82
2021/05/30 06:38:40;;;;;;;3.72;1.25;;;;;;;39.12;34.53;161507.13;1674134;84;21698;-80
2021/05/30 06:41:13;;;;;;;1.20;1.10;;;;;;;38.68;34.78;161389.08;1664999;85;21380;-82
2021/05/30 06:43:50;;;;;;;2.10;1.20;;;;;;;39.17;34.19;161521.88;1674276;84;21253;-82
2021/05/30 06:46:20;;;;;;;1.22;1.12;;;;;;;39.36;34.00;161571.44;1668310;84;21201;-82
2021/05/30 06:48:53;;;;;;;3.60;1.20;;;;;;;39.25;34.29;161543.31;1670071;85;21229;-82
2021/05/30 06:51:30;;;;;;;1.40;1.30;;;;;;;39.35;34.42;161570.13;1671886;84;21214;-82
2021/05/30 06:54:01;;;;;;;2.30;1.20;;;;;;;39.39;34.55;161579.50;1663170;83;21199;-82
2021/05/30 06:56:33;;;;;;;1.27;1.17;;;;;;;39.84;34.30;161701.59;1663727;84;21758;-84
2021/05/30 06:59:06;;;;;;;1.37;1.27;;;;;;;39.99;34.04;161741.84;1669774;84;21227;-83
2021/05/30 07:01:39;;;;;;;2.75;1.42;;;;;;;39.95;33.95;161731.16;1665147;84;21322;-83
2021/05/30 07:04:12;;;;;;;2.47;1.15;;;;;;;39.77;34.06;161681.47;1661260;84;21265;-81
2021/05/30 07:06:45;;;;;;;5.25;1.30;;;;;;;39.49;34.22;161607.67;1658765;85;21305;-79
2021/05/30 07:09:19;;;;;;;1.67;1.20;;;;;;;39.75;33.99;161676.09;1664399;84;21812;-81
2021/05/30 07:11:52;;;;;;;2.90;1.30;;;;;;;39.55;34.10;161622.47;1665192;84;21214;-79
2021/05/30 07:14:25;;;;;;;4.33;1.25;;;;;;;39.75;33.96;161676.09;1658361;85;21245;-81
2021/05/30 07:16:58;;;;;;;1.67;1.57;;;;;;;39.67;33.88;161655.97;1666915;84;21249;-80
2021/05/30 07:19:31;;;;;;;1.65;1.30;;;;;;;39.54;34.13;161621.09;1662116;84;21309;-81
2021/05/30 07:22:06;;;;;;;2.83;1.47;;;;;;;39.64;34.06;161646.59;1659076;84;21226;-81
2021/05/30 07:24:42;;;;;;;1.98;1.40;;;;;;;39.56;34.10;161625.16;1667700;85;21402;-82
2021/05/30 07:27:17;;;;;;;1.90;1.67;;;;;;;39.59;34.00;161633.16;1665424;84;21249;-80
2021/05/30 07:29:54;;;;;;;5.30;1.52;;;;;;;39.53;34.03;161618.41;1665590;84;21167;-79
2021/05/30 07:32:27;;;;;;;1.85;1.60;;;;;;;39.63;34.01;161645.28;1668206;84;21816;-80
2021/05/30 07:35:05;;;;;;;2.00;1.52;;;;;;;39.88;33.85;161712.30;1687161;84;21685;-80
2021/05/30 07:37:41;;;;;;;1.55;1.37;;;;;;;39.76;34.06;161680.09;1690703;84;21318;-80
2021/05/30 07:40:17;;;;;;;2.80;1.70;;;;;;;39.87;34.07;161709.66;1685365;84;21255;-81
2021/05/30 07:42:51;;;;;;;1.60;1.50;;;;;;;40.02;34.06;161749.91;1683980;84;21413;-82
2021/05/30 07:45:29;;;;;;;1.95;1.50;;;;;;;39.89;34.12;161714.98;1685800;84;22493;-81
2021/05/30 07:48:04;;;;;;;2.62;1.40;;;;;;;40.00;33.94;161745.91;1682388;84;21908;-84
2021/05/30 07:50:45;;;;;;;1.95;1.20;;;;;;;40.77;33.38;161951.28;1684112;84;21362;-82
2021/05/30 07:53:28;;;;;;;1.12;0.90;;;;;;;40.10;33.38;161771.41;1686764;84;21259;-85
2021/05/30 07:56:12;;;;;;;1.00;1.00;;;;;;;40.48;33.28;161873.38;1691914;84;22061;-83
2021/05/30 07:58:59;;;;;;;0.90;0.90;;;;;;;41.16;32.44;162058.69;1686923;84;21266;-81
2021/05/30 08:01:43;;;;;;;1.75;0.90;;;;;;;41.58;31.98;162170.17;1687005;83;21750;-80
2021/05/30 08:04:27;;;;;;;1.07;0.95;;;;;;;41.62;31.86;162182.25;1689247;83;21204;-80
2021/05/30 08:07:05;;;;;;;1.37;1.27;;;;;;;40.51;32.55;161882.77;1682035;84;21426;-82
2021/05/30 08:09:37;;;;;;;1.32;1.02;;;;;;;40.31;32.55;161827.75;1683387;84;21937;-80
2021/05/30 08:12:14;;;;;;;2.55;0.90;;;;;;;40.14;32.66;161783.47;1682484;84;21224;-79
2021/05/30 08:14:55;;;;;;;1.47;0.90;;;;;;;40.11;32.85;161775.41;1687900;84;21271;-80
2021/05/30 08:17:32;;;;;;;4.45;0.85;;;;;;;40.22;32.97;161803.61;1686646;84;21256;-81
2021/05/30 08:20:10;;;;;;;2.20;0.88;;;;;;;40.12;33.02;161778.09;1692628;83;21263;-82
2021/05/30 08:22:43;;;;;;;1.32;1.10;;;;;;;40.18;32.94;161794.17;1685207;84;21879;-82
2021/05/30 08:25:17;;;;;;;1.12;1.00;;;;;;;40.52;32.64;161884.13;1686108;84;21350;-82
2021/05/30 08:27:52;;;;;;;0.93;0.90;;;;;;;40.27;32.86;161817.00;1692923;83;21781;-82
2021/05/30 08:30:24;;;;;;;2.15;1.10;;;;;;;40.18;32.88;161792.86;1681730;84;21386;-82
2021/05/30 08:32:59;;;;;;;1.17;0.90;;;;;;;40.09;32.98;161770.03;1685244;84;21274;-82
2021/05/30 08:35:32;;;;;;;1.02;0.93;;;;;;;40.19;32.98;161796.86;1672859;84;21379;-80
2021/05/30 08:38:09;;;;;;;1.30;0.82;;;;;;;40.27;33.19;161818.36;1667967;83;21773;-80
2021/05/30 08:40:44;;;;;;;0.72;0.72;;;;;;;40.36;33.29;161842.55;1659824;84;21261;-80
2021/05/30 08:43:18;;;;;;;1.07;0.98;;;;;;;40.42;33.29;161858.63;1662266;83;21443;-80
2021/05/30 08:45:53;;;;;;;2.85;1.00;;;;;;;40.37;33.36;161845.23;1665107;83;21214;-79
2021/05/30 08:48:28;;;;;;;1.22;0.78;;;;;;;40.62;33.34;161912.34;1673209;84;21231;-82
2021/05/30 08:51:05;;;;;;;0.95;0.85;;;;;;;40.80;32.96;161960.67;1665038;83;21709;-80
2021/05/30 08:53:39;;;;;;;2.00;0.85;;;;;;;40.57;33.15;161898.91;1657438;85;21431;-80
2021/05/30 08:56:13;;;;;;;2.95;1.10;;;;;;;40.68;32.66;161928.41;1674495;84;21841;-80
2021/05/30 08:58:48;;;;;;;1.52;0.95;;;;;;;40.70;32.64;161933.78;1664169;83;21367;-79
2021/05/30 09:01:28;;;;;;;1.07;0.98;;;;;;;40.67;32.76;161924.41;1670313;83;21375;-76
2021/05/30 09:04:07;;;;;;;2.63;1.47;;;;;;;40.49;32.91;161877.44;1663820;84;21341;-78
2021/05/30 09:06:39;;;;;;;2.25;0.93;;;;;;;40.67;32.87;161924.41;1663792;84;21494;-78
2021/05/30 09:09:15;;;;;;;1.45;0.98;;;;;;;40.75;32.81;161947.23;1641959;85;21376;-78
2021/05/30 09:11:48;;;;;;;3.02;1.10;;;;;;;40.74;32.92;161943.17;1676365;84;21483;-79
2021/05/30 09:14:29;;;;;;;1.02;0.90;;;;;;;40.74;32.93;161944.59;1684733;85;21400;-80
2021/05/30 09:17:11;;;;;;;1.50;1.00;;;;;;;40.62;33.14;161910.97;1683629;83;22331;-81
2021/05/30 09:19:55;;;;;;;2.90;1.10;;;;;;;40.78;32.98;161955.30;1684504;85;21419;-81
2021/05/30 09:22:34;;;;;;;1.17;1.07;;;;;;;40.85;32.88;161972.75;1684342;85;21947;-80
2021/05/30 09:25:21;;;;;;;1.40;1.30;;;;;;;40.83;32.96;161968.73;1684328;85;21412;-81
2021/05/30 09:28:01;;;;;;;2.25;2.02;;;;;;;40.83;33.01;161968.73;1684767;85;21368;-80
2021/05/30 09:30:39;;;;;;;2.20;1.50;;;;;;;40.81;33.12;161963.36;1685030;85;21336;-81
2021/05/30 09:33:14;;;;;;;2.08;1.32;;;;;;;40.78;33.15;161955.30;1684755;85;21729;-80
2021/05/30 09:35:57;;;;;;;1.60;1.10;;;;;;;40.88;33.11;161980.81;1688038;84;21371;-81
2021/05/30 09:38:37;;;;;;;1.87;1.20;;;;;;;40.86;33.17;161975.44;1693513;84;21347;-80
2021/05/30 09:41:15;;;;;;;2.33;1.20;;;;;;;40.82;33.20;161964.69;1693197;85;21233;-81
2021/05/30 09:43:52;;;;;;;1.92;1.30;;;;;;;40.88;33.18;161982.13;1693397;85;21424;-80
2021/05/30 09:46:33;;;;;;;2.77;1.20;;;;;;;40.70;33.40;161932.41;1693349;84;21380;-80
2021/05/30 09:49:06;;;;;;;1.20;1.10;;;;;;;40.79;33.36;161957.98;1693555;84;21249;-81
2021/05/30 09:51:41;;;;;;;3.10;1.10;;;;;;;40.80;33.34;161960.67;1692982;83;21333;-80
2021/05/30 09:54:15;;;;;;;1.98;1.20;;;;;;;40.82;33.35;161966.05;1693330;84;21734;-80
2021/05/30 09:56:52;;;;;;;1.22;1.12;;;;;;;40.83;33.34;161968.73;1693189;84;21193;-80
2021/05/30 09:59:27;;;;;;;1.40;1.27;;;;;;;40.95;33.22;162000.95;1693400;84;21863;-81
2021/05/30 10:02:03;;;;;;;2.85;1.40;;;;;;;41.22;32.98;162073.45;1693309;84;21352;-80
2021/05/30 10:04:37;;;;;;;1.42;1.30;;;;;;;41.21;32.94;162070.75;1693056;85;21245;-80
2021/05/30 10:07:10;;;;;;;1.60;1.50;;;;;;;41.21;32.94;162072.13;1693292;84;21352;-80
2021/05/30 10:09:43;;;;;;;1.62;1.40;;;;;;;41.22;32.97;162073.45;1693330;84;21337;-80
2021/05/30 10:12:15;;;;;;;1.35;1.25;;;;;;;41.34;32.77;162105.67;1693377;84;21344;-80
2021/05/30 10:14:49;;;;;;;4.70;1.92;;;;;;;41.28;32.78;162089.58;1693218;84;22147;-80
2021/05/30 10:17:22;;;;;;;1.55;1.30;;;;;;;41.29;32.80;162092.28;1665099;84;21193;-80
2021/05/30 10:19:55;;;;;;;1.60;1.50;;;;;;;41.39;32.61;162119.13;1693400;84;21359;-80
2021/05/30 10:22:29;;;;;;;2.17;1.30;;;;;;;41.44;32.53;162132.52;1693385;84;21950;-81
2021/05/30 10:25:01;;;;;;;5.22;1.55;;;;;;;41.27;32.72;162086.89;1693207;83;21379;-81
2021/05/30 10:27:35;;;;;;;3.08;1.35;;;;;;;41.24;32.71;162078.83;1693370;84;21344;-80
2021/05/30 10:30:13;;;;;;;1.98;1.35;;;;;;;41.28;32.58;162090.91;1692947;85;21348;-80
2021/05/30 10:32:53;;;;;;;1.35;1.25;;;;;;;41.23;32.57;162076.14;1693139;84;21233;-81
2021/05/30 10:35:27;;;;;;;1.50;1.40;;;;;;;41.05;32.71;162029.11;1662910;83;21233;-82
2021/05/30 10:38:01;;;;;;;2.25;1.55;;;;;;;41.34;32.44;162105.67;1684279;84;21341;-81
2021/05/30 10:40:37;;;;;;;1.90;1.40;;;;;;;41.24;32.50;162080.20;1684903;84;21364;-80
2021/05/30 10:43:13;;;;;;;1.35;1.25;;;;;;;41.32;32.56;162100.34;1684747;85;21992;-80
2021/05/30 10:45:57;;;;;;;2.02;1.20;;;;;;;41.26;32.69;162084.20;1685031;84;21289;-81
2021/05/30 10:48:30;;;;;;;1.45;1.35;;;;;;;41.00;32.96;162014.34;1684792;85;21427;-80
2021/05/30 10:53:54;;;;;;;2.95;1.60;;;;;;;41.22;32.69;162073.45;1684705;85;21206;-80
2021/05/30 10:56:34;;;;;;;2.33;1.27;;;;;;;41.09;32.78;162038.48;1661848;85;21353;-80
2021/05/30 10:59:19;;;;;;;1.85;1.70;;;;;;;41.20;32.67;162068.13;1685012;84;21254;-80
2021/05/30 11:01:52;;;;;;;4.22;1.70;;;;;;;41.18;32.65;162062.75;1684826;85;21395;-81
2021/05/30 11:04:29;;;;;;;1.47;1.37;;;;;;;41.00;32.82;162014.34;1685059;84;21440;-81
2021/05/30 11:07:19;;;;;;;1.75;1.60;;;;;;;40.93;32.84;161996.89;1684753;84;21183;-81
2021/05/30 11:10:02;;;;;;;4.30;1.57;;;;;;;40.97;32.81;162007.64;1684836;85;21991;-81
2021/05/30 11:12:37;;;;;;;2.30;1.55;;;;;;;40.99;32.79;162013.03;1684657;85;21383;-81
2021/05/30 11:15:14;;;;;;;2.10;1.62;;;;;;;40.93;32.79;161995.58;1683875;85;21301;-81
2021/05/30 11:17:56;;;;;;;1.87;1.67;;;;;;;40.89;32.86;161984.81;1685236;84;21340;-81
2021/05/30 11:20:44;;;;;;;1.55;1.45;;;;;;;40.69;33.00;161931.09;1684878;84;21273;-81
2021/05/30 11:23:19;;;;;;;2.75;1.57;;;;;;;40.72;33.00;161937.80;1685673;83;21455;-80
2021/05/30 11:25:56;;;;;;;1.65;1.50;;;;;;;40.69;33.01;161931.09;1685151;85;21396;-80
2021/05/30 11:28:31;;;;;;;2.22;1.50;;;;;;;39.97;33.86;161737.84;1685477;84;21395;-83
2021/05/30 11:31:08;;;;;;;5.62;1.60;;;;;;;40.57;33.19;161898.91;1685482;84;21375;-81
2021/05/30 11:33:46;;;;;;;1.52;1.42;;;;;;;40.56;33.17;161894.89;1685672;84;21207;-82
2021/05/30 11:36:26;;;;;;;4.17;1.50;;;;;;;40.46;33.26;161869.37;1685675;85;21412;-79
2021/05/30 11:39:08;;;;;;;1.87;1.52;;;;;;;40.43;33.32;161860.00;1681224;84;21375;-79
2021/05/30 11:41:46;;;;;;;2.10;1.82;;;;;;;40.25;33.52;161812.98;1681846;85;21383;-81
2021/05/30 11:44:26;;;;;;;1.60;1.50;;;;;;;40.38;33.36;161846.56;1664334;85;21384;-82
2021/05/30 11:47:05;;;;;;;1.75;1.50;;;;;;;40.52;33.21;161885.45;1685077;85;21254;-80
2021/05/30 11:49:39;;;;;;;1.87;1.47;;;;;;;40.15;33.45;161784.80;1685063;84;21710;-81
2021/05/30 11:52:19;;;;;;;1.70;1.60;;;;;;;39.89;33.81;161713.66;1662070;85;21392;-81
2021/05/30 11:54:52;;;;;;;1.77;1.50;;;;;;;40.01;33.73;161748.59;1685145;85;21340;-81
2021/05/30 11:57:26;;;;;;;2.40;2.05;;;;;;;40.50;33.30;161880.13;1685120;85;21353;-81
2021/05/30 12:00:05;;;;;;;1.85;1.75;;;;;;;40.19;33.59;161795.55;1685121;84;21270;-81
2021/05/30 12:02:43;;;;;;;4.08;1.70;;;;;;;40.19;33.61;161796.86;1685338;84;21416;-81
2021/05/30 12:05:17;;;;;;;4.33;1.57;;;;;;;40.10;33.68;161771.41;1685159;85;21190;-82